Time;durP1;ratioP1;P1;durP2;ratioP2;P2;SDS_P1;SDS_P2;PMS_P1;PMS_P2;Temp;Humidity;BMP_temperature;BMP_pressure;BME280_temperature;BME280_humidity;BME280_pressure;Samples;Min_cycle;Max_cycle;Signal;HPM_P1;HPM_P2
2022/07/15 00:02:13;;;;;;;19.40;17.88;;;12.60;99.90;;;;;;5033205;28;20419;-74
2022/07/15 00:04:40;;;;;;;18.65;17.55;;;12.50;99.90;;;;;;5026257;28;20062;-72
2022/07/15 00:07:07;;;;;;;18.80;17.70;;;12.50;99.90;;;;;;5045124;28;20211;-72
2022/07/15 00:12:19;;;;;;;18.85;17.77;;;12.40;99.90;;;;;;5048546;28;20419;-72
2022/07/15 00:14:46;;;;;;;18.52;17.40;;;12.30;99.90;;;;;;5032746;28;20079;-72
2022/07/15 00:17:12;;;;;;;18.42;17.38;;;12.20;99.90;;;;;;5052866;28;20391;-72
2022/07/15 00:19:39;;;;;;;18.70;17.50;;;12.20;99.90;;;;;;5044379;28;20032;-72
2022/07/15 00:22:06;;;;;;;18.95;17.30;;;12.20;99.90;;;;;;5025288;28;20127;-73
2022/07/15 00:24:33;;;;;;;19.42;18.13;;;12.30;99.90;;;;;;5041445;28;20044;-73
2022/07/15 00:27:02;;;;;;;18.55;17.40;;;12.20;99.90;;;;;;5050973;28;20074;-72
2022/07/15 00:29:29;;;;;;;17.88;16.80;;;12.30;99.90;;;;;;5045926;28;20137;-72
2022/07/15 00:31:56;;;;;;;18.58;17.15;;;12.40;99.90;;;;;;5032342;28;20084;-72
2022/07/15 00:34:23;;;;;;;17.92;16.92;;;12.30;99.90;;;;;;5034445;28;20053;-73
2022/07/15 00:36:51;;;;;;;17.13;16.02;;;12.20;99.90;;;;;;5053066;28;20094;-72
2022/07/15 00:39:17;;;;;;;17.90;16.50;;;12.40;99.90;;;;;;5034059;28;20375;-72
2022/07/15 00:41:45;;;;;;;17.42;16.33;;;12.40;99.90;;;;;;5048072;28;20048;-72
2022/07/15 00:44:12;;;;;;;18.88;17.58;;;12.60;99.90;;;;;;5043488;28;20033;-72
2022/07/15 00:46:39;;;;;;;18.45;17.35;;;12.40;99.90;;;;;;5030250;28;20098;-72
2022/07/15 00:49:08;;;;;;;18.27;16.92;;;12.40;99.90;;;;;;5028029;28;20438;-72
2022/07/15 00:51:44;;;;;;;17.45;16.40;;;12.60;99.90;;;;;;5021012;28;20056;-72
2022/07/15 00:54:13;;;;;;;17.77;16.70;;;12.60;99.90;;;;;;5035566;28;20398;-72
2022/07/15 00:56:47;;;;;;;17.88;16.77;;;12.60;99.90;;;;;;5036281;28;20941;-72
2022/07/15 00:59:15;;;;;;;20.00;18.17;;;12.50;99.90;;;;;;5032995;28;20049;-72
2022/07/15 01:01:44;;;;;;;18.80;17.70;;;12.50;99.90;;;;;;5024703;28;20112;-72
2022/07/15 01:04:12;;;;;;;19.00;17.80;;;12.50;99.90;;;;;;5030160;28;20048;-72
2022/07/15 01:06:39;;;;;;;19.67;18.48;;;12.50;99.90;;;;;;5052607;28;20299;-72
2022/07/15 01:09:07;;;;;;;19.13;17.88;;;12.60;99.90;;;;;;5030532;28;20045;-72
2022/07/15 01:11:34;;;;;;;20.63;18.92;;;12.60;99.90;;;;;;5026002;28;20049;-72
2022/07/15 01:14:02;;;;;;;19.85;18.35;;;12.60;99.90;;;;;;5032436;28;20072;-72
2022/07/15 01:16:30;;;;;;;19.15;17.85;;;12.60;99.90;;;;;;5020302;28;20580;-72
2022/07/15 01:18:57;;;;;;;19.67;18.15;;;12.60;99.90;;;;;;5049763;28;20044;-73
2022/07/15 01:21:30;;;;;;;19.23;17.65;;;12.80;99.90;;;;;;5030671;28;20032;-73
2022/07/15 01:23:58;;;;;;;19.23;17.83;;;12.90;99.90;;;;;;5033450;28;20647;-73
2022/07/15 01:26:54;;;;;;;19.30;17.77;;;12.80;99.90;;;;;;5044130;28;20120;-73
2022/07/15 01:29:22;;;;;;;18.85;17.60;;;13.00;99.90;;;;;;5049442;28;20048;-73
2022/07/15 01:31:50;;;;;;;18.27;17.08;;;12.90;99.90;;;;;;5027483;28;20421;-73
2022/07/15 01:34:17;;;;;;;17.67;16.55;;;13.00;99.90;;;;;;5030263;28;20047;-73
2022/07/15 01:36:44;;;;;;;17.80;16.52;;;13.10;99.90;;;;;;5036404;28;20106;-72
2022/07/15 01:39:12;;;;;;;18.10;16.88;;;13.10;99.90;;;;;;5031406;28;20037;-72
2022/07/15 01:41:59;;;;;;;18.52;17.05;;;13.20;99.90;;;;;;5023837;28;20092;-72
2022/07/15 01:44:26;;;;;;;18.40;16.90;;;13.20;99.90;;;;;;5019394;28;20041;-72
2022/07/15 01:46:53;;;;;;;18.55;17.20;;;13.30;99.90;;;;;;5037152;28;20036;-72
2022/07/15 01:49:25;;;;;;;19.38;17.90;;;13.30;99.90;;;;;;5031248;28;20494;-72
2022/07/15 01:52:11;;;;;;;18.08;16.73;;;13.20;99.90;;;;;;5054241;28;20131;-73
2022/07/15 01:54:41;;;;;;;19.10;17.15;;;13.20;99.90;;;;;;5001632;28;20040;-74
2022/07/15 01:57:08;;;;;;;18.05;16.73;;;13.00;99.90;;;;;;5019094;28;20055;-74
2022/07/15 01:59:51;;;;;;;17.40;15.98;;;13.00;99.90;;;;;;5036465;28;20048;-74
2022/07/15 02:02:27;;;;;;;17.65;16.30;;;13.00;99.90;;;;;;5025873;28;20082;-74
2022/07/15 02:04:54;;;;;;;17.48;16.00;;;13.00;99.90;;;;;;5031959;28;20059;-74
2022/07/15 02:07:20;;;;;;;17.67;15.88;;;13.00;99.90;;;;;;5029510;28;20457;-74
2022/07/15 02:09:48;;;;;;;17.27;15.98;;;13.00;99.90;;;;;;5021185;28;20507;-74
2022/07/15 02:12:15;;;;;;;17.10;15.63;;;13.00;99.90;;;;;;5029099;28;20037;-74
2022/07/15 02:14:46;;;;;;;18.38;16.83;;;13.10;99.90;;;;;;5033125;28;20120;-74
2022/07/15 02:17:13;;;;;;;17.60;16.30;;;13.20;99.90;;;;;;5030459;28;20056;-74
2022/07/15 02:19:41;;;;;;;17.75;16.15;;;13.30;99.90;;;;;;5026120;28;20097;-74
2022/07/15 02:22:08;;;;;;;17.95;16.60;;;13.30;99.90;;;;;;5017686;28;20045;-74
2022/07/15 02:24:35;;;;;;;18.38;16.75;;;13.20;99.90;;;;;;5033325;28;20530;-74
2022/07/15 02:27:02;;;;;;;18.20;16.85;;;13.30;99.90;;;;;;5048289;28;20676;-72
2022/07/15 02:29:29;;;;;;;17.73;16.35;;;13.30;99.90;;;;;;5024641;28;20045;-73
2022/07/15 02:31:56;;;;;;;18.10;16.70;;;13.40;99.90;;;;;;5034480;28;20045;-72
2022/07/15 02:34:23;;;;;;;17.38;15.95;;;13.40;99.90;;;;;;5035284;28;20047;-72
2022/07/15 02:36:50;;;;;;;16.38;15.20;;;13.30;99.90;;;;;;5035785;28;20048;-72
2022/07/15 02:39:17;;;;;;;16.08;14.80;;;13.30;99.90;;;;;;5014112;28;20759;-72
2022/07/15 02:41:43;;;;;;;17.58;15.82;;;13.30;99.90;;;;;;5038572;28;20469;-72
2022/07/15 02:44:14;;;;;;;16.35;15.15;;;13.30;99.90;;;;;;5028075;28;20048;-72
2022/07/15 02:46:43;;;;;;;16.15;14.95;;;13.30;99.90;;;;;;5036024;28;20044;-72
2022/07/15 02:49:11;;;;;;;16.65;15.43;;;13.10;99.90;;;;;;5031980;28;20089;-73
2022/07/15 02:51:38;;;;;;;16.75;15.65;;;13.10;99.90;;;;;;5025641;28;20511;-72
2022/07/15 02:54:07;;;;;;;17.13;15.57;;;12.90;99.90;;;;;;5019620;28;20079;-72
2022/07/15 02:56:37;;;;;;;16.80;15.10;;;12.80;99.90;;;;;;5030567;28;21434;-73
2022/07/15 02:59:04;;;;;;;17.20;15.60;;;12.80;99.90;;;;;;5033239;28;20060;-72
2022/07/15 03:01:31;;;;;;;16.70;15.30;;;12.80;99.90;;;;;;5026152;28;20592;-73
2022/07/15 03:04:00;;;;;;;17.45;14.27;;;12.80;99.90;;;;;;5027620;28;20106;-73
2022/07/15 03:06:27;;;;;;;15.60;14.30;;;12.80;99.90;;;;;;5016740;28;20041;-73
2022/07/15 03:08:54;;;;;;;15.93;14.32;;;12.70;99.90;;;;;;5032801;28;20102;-73
2022/07/15 03:11:21;;;;;;;16.92;14.93;;;12.50;99.90;;;;;;5013389;28;20099;-72
2022/07/15 03:13:49;;;;;;;16.30;14.15;;;12.40;99.90;;;;;;5053915;28;20049;-72
2022/07/15 03:16:16;;;;;;;14.88;13.50;;;12.30;99.90;;;;;;5049710;28;20045;-73
2022/07/15 03:18:46;;;;;;;16.80;14.25;;;12.30;99.90;;;;;;5017290;28;20087;-73
2022/07/15 03:21:14;;;;;;;15.55;14.27;;;12.30;99.90;;;;;;5029465;28;20044;-73
2022/07/15 03:23:41;;;;;;;16.17;14.75;;;12.20;99.90;;;;;;5026548;28;20052;-72
2022/07/15 03:26:08;;;;;;;17.40;14.55;;;12.10;99.90;;;;;;5016499;28;20044;-72
2022/07/15 03:28:35;;;;;;;17.15;14.98;;;12.20;99.90;;;;;;5045783;28;20052;-72
2022/07/15 03:31:03;;;;;;;15.80;13.98;;;12.20;99.90;;;;;;5032500;28;20468;-72
2022/07/15 03:33:30;;;;;;;16.75;14.27;;;12.10;99.90;;;;;;5046674;28;20040;-72
2022/07/15 03:35:56;;;;;;;15.95;14.27;;;12.10;99.90;;;;;;5035980;28;20345;-72
2022/07/15 03:38:27;;;;;;;16.30;14.80;;;12.00;99.90;;;;;;5031125;28;20047;-72
2022/07/15 03:40:54;;;;;;;15.93;14.25;;;12.10;99.90;;;;;;5048998;28;20110;-72
2022/07/15 03:43:22;;;;;;;15.43;14.02;;;12.10;99.90;;;;;;5056537;22;20040;-68
2022/07/15 03:45:51;;;;;;;15.82;14.13;;;12.10;99.90;;;;;;5033044;28;20052;-70
2022/07/15 03:48:19;;;;;;;16.33;14.73;;;12.10;99.90;;;;;;5049284;28;20040;-70
2022/07/15 03:50:47;;;;;;;18.17;15.25;;;12.00;99.90;;;;;;5018489;28;20249;-68
2022/07/15 03:53:14;;;;;;;16.48;14.88;;;12.00;99.90;;;;;;5043798;28;20056;-71
2022/07/15 03:55:41;;;;;;;16.33;14.63;;;11.70;99.90;;;;;;5031516;28;20079;-69
2022/07/15 03:58:08;;;;;;;15.77;14.00;;;11.60;99.90;;;;;;5058225;28;20111;-71
2022/07/15 04:00:34;;;;;;;15.23;14.02;;;11.50;99.90;;;;;;5046338;28;20417;-71
2022/07/15 04:03:01;;;;;;;14.80;13.32;;;11.30;99.90;;;;;;5036620;28;20044;-69
2022/07/15 04:05:28;;;;;;;20.63;15.25;;;11.30;99.90;;;;;;5035594;28;20285;-71
2022/07/15 04:07:55;;;;;;;15.77;13.68;;;11.20;99.90;;;;;;5036066;28;20052;-70
2022/07/15 04:10:24;;;;;;;14.68;13.18;;;11.10;99.90;;;;;;5032484;28;20055;-70
2022/07/15 04:12:52;;;;;;;15.73;13.70;;;11.20;99.90;;;;;;5034790;28;20131;-70
2022/07/15 04:15:19;;;;;;;17.95;14.48;;;11.20;99.90;;;;;;5055291;28;20052;-70
2022/07/15 04:17:46;;;;;;;15.82;14.50;;;11.10;99.90;;;;;;5040347;28;20043;-69
2022/07/15 04:20:18;;;;;;;15.20;13.65;;;11.40;99.90;;;;;;5037490;28;20036;-69
2022/07/15 04:22:47;;;;;;;15.85;14.35;;;11.50;99.90;;;;;;5042556;28;20119;-70
2022/07/15 04:25:20;;;;;;;15.98;14.27;;;11.40;99.90;;;;;;5038604;28;20040;-70
2022/07/15 04:27:48;;;;;;;15.70;14.30;;;11.60;99.90;;;;;;5036596;28;20457;-71
2022/07/15 04:30:18;;;;;;;15.75;14.10;;;11.70;99.90;;;;;;5033610;28;20113;-69
2022/07/15 04:32:48;;;;;;;17.83;14.50;;;11.80;99.90;;;;;;5039913;28;20041;-69
2022/07/15 04:35:15;;;;;;;16.95;14.35;;;11.90;99.90;;;;;;5021580;28;20048;-69
2022/07/15 04:37:45;;;;;;;16.55;15.48;;;12.00;99.90;;;;;;5037771;28;20550;-70
2022/07/15 04:40:13;;;;;;;17.30;15.52;;;12.10;99.90;;;;;;5038232;28;20068;-70
2022/07/15 04:42:42;;;;;;;16.70;15.38;;;12.40;99.90;;;;;;5036640;28;20260;-70
2022/07/15 04:45:12;;;;;;;18.33;16.55;;;12.50;99.90;;;;;;5027356;28;20212;-69
2022/07/15 04:47:39;;;;;;;17.27;15.98;;;12.70;99.90;;;;;;5034809;28;20434;-70
2022/07/15 04:52:54;;;;;;;17.95;16.10;;;12.80;99.90;;;;;;5040341;28;20044;-69
2022/07/15 04:55:23;;;;;;;15.63;14.38;;;12.80;99.90;;;;;;5037080;28;20040;-71
2022/07/15 04:58:00;;;;;;;17.20;15.30;;;12.80;99.90;;;;;;5041764;28;20513;-69
2022/07/15 05:00:27;;;;;;;17.48;15.85;;;12.90;99.90;;;;;;5016161;28;20498;-70
2022/07/15 05:02:54;;;;;;;19.60;17.48;;;13.20;99.90;;;;;;5037841;28;20264;-69
2022/07/15 05:05:21;;;;;;;19.25;17.85;;;13.50;99.90;;;;;;5054389;28;20052;-69
2022/07/15 05:07:49;;;;;;;19.52;17.77;;;13.80;99.90;;;;;;5038675;28;20047;-70
2022/07/15 05:10:16;;;;;;;20.95;18.77;;;14.10;99.90;;;;;;5034182;28;20055;-70
2022/07/15 05:12:50;;;;;;;22.85;20.52;;;14.20;99.90;;;;;;5034754;28;20383;-70
2022/07/15 05:15:17;;;;;;;26.05;20.33;;;14.50;99.90;;;;;;5022461;28;20052;-68
2022/07/15 05:17:44;;;;;;;21.17;19.42;;;14.50;99.90;;;;;;5037139;28;20048;-70
2022/07/15 05:20:17;;;;;;;22.48;20.58;;;14.80;99.90;;;;;;5032753;28;20268;-70
2022/07/15 05:22:44;;;;;;;23.30;20.80;;;15.00;99.90;;;;;;5036461;28;20083;-70
2022/07/15 05:25:12;;;;;;;23.98;21.67;;;15.10;99.90;;;;;;5038843;28;21563;-71
2022/07/15 05:27:40;;;;;;;23.95;21.83;;;14.90;99.90;;;;;;5034362;28;20304;-70
2022/07/15 05:30:08;;;;;;;23.85;21.75;;;14.90;99.90;;;;;;5036374;28;20044;-69
2022/07/15 05:32:35;;;;;;;24.38;21.90;;;14.80;99.90;;;;;;5014738;28;20486;-70
2022/07/15 05:35:07;;;;;;;23.98;21.77;;;15.00;99.90;;;;;;5031678;28;20460;-70
2022/07/15 05:37:38;;;;;;;23.88;21.77;;;15.20;99.90;;;;;;5031277;28;20059;-70
2022/07/15 05:40:07;;;;;;;24.50;22.20;;;15.50;99.90;;;;;;5034161;28;20044;-71
2022/07/15 05:42:41;;;;;;;;;;;15.80;99.90;;;;;;5036126;28;20583;-70
2022/07/15 05:45:09;;;;;;;25.00;23.05;;;15.90;99.90;;;;;;5025224;28;19920;-70
2022/07/15 05:47:50;;;;;;;23.77;21.80;;;16.10;99.90;;;;;;5033467;28;20618;-70
2022/07/15 05:50:20;;;;;;;24.17;22.05;;;16.20;99.90;;;;;;5031543;28;20041;-71
2022/07/15 05:52:47;;;;;;;24.30;22.38;;;16.00;99.90;;;;;;5034050;28;20040;-70
2022/07/15 05:55:16;;;;;;;22.83;20.95;;;16.10;99.90;;;;;;5032658;28;20533;-69
2022/07/15 05:57:43;;;;;;;23.60;21.90;;;15.90;99.90;;;;;;5019347;28;20052;-68
2022/07/15 06:00:12;;;;;;;23.77;21.77;;;16.00;99.90;;;;;;5024771;28;20451;-70
2022/07/15 06:02:40;;;;;;;23.85;21.92;;;16.00;99.90;;;;;;5052964;28;20041;-70
2022/07/15 06:05:13;;;;;;;22.63;20.67;;;16.00;99.90;;;;;;5033977;28;20051;-70
2022/07/15 06:07:45;;;;;;;23.95;21.92;;;15.90;99.90;;;;;;5026291;28;20060;-68
2022/07/15 06:10:17;;;;;;;24.02;21.95;;;15.70;99.90;;;;;;5032337;28;20043;-69
2022/07/15 06:12:44;;;;;;;24.73;22.35;;;15.60;99.90;;;;;;5029990;28;20040;-71
2022/07/15 06:15:11;;;;;;;24.50;22.42;;;15.60;99.90;;;;;;5033896;28;20082;-68
2022/07/15 06:17:38;;;;;;;21.95;20.35;;;15.40;99.90;;;;;;5017851;28;20055;-70
2022/07/15 06:20:06;;;;;;;24.48;21.88;;;15.40;99.90;;;;;;5034745;28;20445;-71
2022/07/15 06:22:38;;;;;;;25.17;23.10;;;15.40;99.90;;;;;;5030376;28;20505;-70
2022/07/15 06:25:05;;;;;;;25.08;22.80;;;15.40;99.90;;;;;;5036019;28;20060;-71
2022/07/15 06:27:32;;;;;;;23.80;21.70;;;15.30;99.90;;;;;;5030624;28;20194;-71
2022/07/15 06:29:59;;;;;;;24.65;22.55;;;15.40;99.90;;;;;;5038856;28;20467;-70
2022/07/15 06:32:26;;;;;;;25.08;22.50;;;15.40;99.90;;;;;;5032583;28;20529;-70
2022/07/15 06:34:53;;;;;;;24.63;22.52;;;15.50;99.90;;;;;;5039418;28;20042;-69
2022/07/15 06:37:20;;;;;;;24.48;22.38;;;15.50;99.90;;;;;;5022875;28;20055;-69
2022/07/15 06:39:48;;;;;;;24.63;22.13;;;15.30;99.90;;;;;;5041889;28;20118;-71
2022/07/15 06:42:15;;;;;;;23.33;21.27;;;15.50;99.90;;;;;;5030807;28;20040;-72
2022/07/15 06:44:43;;;;;;;25.23;22.92;;;15.40;99.90;;;;;;5031640;28;20041;-71
2022/07/15 06:47:10;;;;;;;23.60;21.48;;;15.40;99.90;;;;;;5034079;28;20041;-70
2022/07/15 06:49:37;;;;;;;23.23;21.45;;;15.50;99.90;;;;;;5029332;28;20854;-69
2022/07/15 06:52:04;;;;;;;23.88;21.83;;;15.30;99.90;;;;;;5032637;28;20514;-69
2022/07/15 06:54:31;;;;;;;24.13;22.17;;;15.40;99.90;;;;;;5031811;28;20067;-70
2022/07/15 06:56:59;;;;;;;23.98;21.92;;;15.50;99.90;;;;;;5018043;28;20143;-70
2022/07/15 06:59:26;;;;;;;24.23;21.80;;;15.60;99.90;;;;;;5029234;28;20044;-70
2022/07/15 07:01:53;;;;;;;23.48;21.55;;;15.60;99.90;;;;;;5036398;28;20522;-69
2022/07/15 07:04:21;;;;;;;24.23;22.05;;;15.60;99.90;;;;;;5029942;28;20440;-68
2022/07/15 07:06:49;;;;;;;24.98;21.80;;;15.60;99.90;;;;;;5036593;28;20047;-69
2022/07/15 07:09:17;;;;;;;25.88;22.55;;;15.50;99.90;;;;;;5037835;28;20541;-68
2022/07/15 07:11:44;;;;;;;25.25;21.77;;;15.30;99.90;;;;;;5019138;28;20052;-70
2022/07/15 07:14:11;;;;;;;24.27;22.02;;;15.30;99.90;;;;;;5038883;28;20070;-70
2022/07/15 07:16:39;;;;;;;26.88;21.85;;;15.30;99.90;;;;;;5049244;28;20117;-69
2022/07/15 07:19:06;;;;;;;23.65;21.83;;;15.30;99.90;;;;;;5034489;28;20063;-69
2022/07/15 07:21:33;;;;;;;28.48;22.33;;;15.50;99.90;;;;;;5029091;28;20121;-69
2022/07/15 07:23:59;;;;;;;23.08;21.13;;;15.70;99.90;;;;;;5050129;28;20040;-69
2022/07/15 07:26:27;;;;;;;24.77;21.67;;;16.00;99.90;;;;;;5032555;28;20040;-69
2022/07/15 07:28:53;;;;;;;23.80;21.73;;;16.20;99.90;;;;;;5053133;28;20040;-70
2022/07/15 07:31:25;;;;;;;24.92;22.35;;;16.40;99.90;;;;;;5030712;28;20501;-68
2022/07/15 07:33:57;;;;;;;23.73;21.77;;;16.70;99.90;;;;;;5031881;28;20047;-69
2022/07/15 07:36:25;;;;;;;24.27;22.08;;;17.10;99.90;;;;;;5048634;28;20055;-69
2022/07/15 07:38:53;;;;;;;22.55;20.65;;;17.00;99.90;;;;;;5053677;28;20291;-69
2022/07/15 07:41:19;;;;;;;23.25;21.25;;;16.90;99.90;;;;;;5051381;28;20105;-70
2022/07/15 07:43:46;;;;;;;22.98;20.73;;;16.90;99.90;;;;;;5030773;28;20391;-70
2022/07/15 07:46:14;;;;;;;23.25;21.27;;;17.00;99.90;;;;;;5028786;28;20671;-68
2022/07/15 07:48:41;;;;;;;22.55;20.75;;;16.90;99.90;;;;;;5048711;28;21299;-70
2022/07/15 07:51:09;;;;;;;23.38;21.27;;;17.00;99.90;;;;;;5050921;28;20071;-70
2022/07/15 07:53:35;;;;;;;22.52;20.80;;;16.80;99.90;;;;;;5030255;28;20162;-70
2022/07/15 07:56:03;;;;;;;23.92;22.05;;;16.80;99.90;;;;;;5051522;28;20117;-69
2022/07/15 07:58:29;;;;;;;23.70;21.88;;;16.60;99.90;;;;;;5049185;28;20271;-69
2022/07/15 08:00:56;;;;;;;22.33;20.42;;;16.60;99.90;;;;;;5030620;28;20113;-72
2022/07/15 08:03:23;;;;;;;24.77;22.33;;;16.40;99.90;;;;;;5032223;28;20316;-72
2022/07/15 08:05:50;;;;;;;23.70;21.55;;;16.30;99.90;;;;;;5035300;28;20060;-69
2022/07/15 08:08:20;;;;;;;23.63;21.77;;;16.10;99.90;;;;;;5049605;28;20109;-68
2022/07/15 08:10:50;;;;;;;24.00;21.70;;;15.90;99.90;;;;;;5032351;28;20580;-70
2022/07/15 08:13:18;;;;;;;23.33;21.52;;;15.90;99.90;;;;;;5029018;28;20040;-68
2022/07/15 08:15:45;;;;;;;23.33;21.17;;;16.00;99.90;;;;;;5048916;28;20188;-69
2022/07/15 08:18:12;;;;;;;23.15;21.20;;;16.20;99.90;;;;;;5052407;28;20072;-70
2022/07/15 08:20:40;;;;;;;24.35;22.27;;;16.40;99.90;;;;;;5051905;28;20135;-69
2022/07/15 08:23:07;;;;;;;23.08;21.38;;;16.50;99.90;;;;;;5051740;28;20044;-69
2022/07/15 08:25:38;;;;;;;22.33;20.83;;;16.50;99.90;;;;;;5048396;28;21216;-70
2022/07/15 08:28:07;;;;;;;23.48;21.58;;;16.40;99.90;;;;;;5033648;28;20048;-70
2022/07/15 08:30:34;;;;;;;23.65;21.83;;;16.60;99.90;;;;;;5027993;28;20033;-71
2022/07/15 08:33:01;;;;;;;23.50;21.60;;;16.70;99.90;;;;;;5051326;28;20672;-71
2022/07/15 08:35:29;;;;;;;23.65;21.58;;;16.80;99.90;;;;;;5032351;28;20048;-72
2022/07/15 08:37:57;;;;;;;23.13;21.50;;;16.90;99.90;;;;;;5036906;28;20110;-71
2022/07/15 08:40:24;;;;;;;22.30;20.90;;;17.10;99.90;;;;;;5047509;28;20079;-70
2022/07/15 08:42:51;;;;;;;23.27;21.48;;;17.30;99.90;;;;;;5050483;28;20498;-70
2022/07/15 08:45:18;;;;;;;23.90;22.02;;;17.20;99.90;;;;;;5032246;28;20044;-70
2022/07/15 08:47:46;;;;;;;23.17;20.92;;;17.10;99.90;;;;;;5028738;28;20347;-71
2022/07/15 08:50:20;;;;;;;;;;;16.90;99.90;;;;;;5029624;28;20584;-70
2022/07/15 08:52:48;;;;;;;23.88;22.33;;;16.80;99.90;;;;;;5032105;28;19920;-70
2022/07/15 08:55:18;;;;;;;23.10;21.52;;;16.80;99.90;;;;;;5030795;28;20036;-70
2022/07/15 08:57:52;;;;;;;23.85;21.95;;;16.70;99.90;;;;;;5030422;28;20534;-71
2022/07/15 09:00:22;;;;;;;24.23;22.27;;;16.70;99.90;;;;;;5050062;28;20052;-71
2022/07/15 09:02:49;;;;;;;23.63;21.83;;;16.70;99.90;;;;;;5035892;28;20278;-71
2022/07/15 09:05:33;;;;;;;24.40;22.65;;;16.70;99.90;;;;;;5032919;28;20048;-71
2022/07/15 09:08:04;;;;;;;23.55;22.05;;;16.70;99.90;;;;;;5053393;28;20517;-71
2022/07/15 09:10:45;;;;;;;22.80;21.23;;;17.10;99.90;;;;;;5050038;28;20036;-74
2022/07/15 09:13:22;;;;;;;21.63;20.17;;;17.90;99.90;;;;;;5034895;28;20501;-73
2022/07/15 09:15:50;;;;;;;22.20;20.67;;;18.30;99.90;;;;;;5056896;28;20105;-73
2022/07/15 09:18:19;;;;;;;23.17;21.52;;;18.70;99.90;;;;;;5057280;28;20044;-72
2022/07/15 09:20:47;;;;;;;22.55;20.83;;;18.90;99.90;;;;;;5037593;28;20040;-73
2022/07/15 09:23:20;;;;;;;22.67;20.90;;;18.70;99.90;;;;;;5053841;28;20548;-73
2022/07/15 09:25:51;;;;;;;22.95;21.15;;;18.40;99.90;;;;;;5039188;28;20210;-74
2022/07/15 09:28:18;;;;;;;24.65;22.75;;;18.50;99.90;;;;;;5031603;28;20044;-72
2022/07/15 09:33:44;;;;;;;22.33;20.98;;;18.50;99.90;;;;;;5050373;28;20055;-73
2022/07/15 09:36:23;;;;;;;23.98;22.38;;;18.50;99.90;;;;;;5017683;28;20209;-74
2022/07/15 09:39:01;;;;;;;23.58;21.77;;;18.40;99.90;;;;;;5025956;28;20052;-74
2022/07/15 09:41:37;;;;;;;23.23;21.73;;;18.50;99.90;;;;;;5014370;28;20040;-74
2022/07/15 09:44:16;;;;;;;24.48;22.10;;;18.50;99.90;;;;;;5058313;22;20045;-76
2022/07/15 09:46:49;;;;;;;22.95;21.35;;;18.30;99.90;;;;;;4999563;28;20040;-73
2022/07/15 09:49:22;;;;;;;22.08;20.58;;;18.10;99.90;;;;;;5013285;28;20491;-74
2022/07/15 09:52:00;;;;;;;21.70;19.92;;;18.00;99.90;;;;;;5030395;28;20040;-75
2022/07/15 09:54:33;;;;;;;21.02;19.83;;;18.10;99.90;;;;;;5034673;28;20889;-77
2022/07/15 09:57:02;;;;;;;22.05;20.45;;;17.90;99.90;;;;;;5024732;28;20623;-75
2022/07/15 09:59:30;;;;;;;22.38;20.48;;;17.70;99.90;;;;;;5020993;28;20108;-74
2022/07/15 10:02:03;;;;;;;21.55;20.10;;;17.70;99.90;;;;;;5043949;28;20746;-75
2022/07/15 10:04:31;;;;;;;21.92;20.33;;;17.60;99.90;;;;;;4987209;28;20127;-75
2022/07/15 10:07:02;;;;;;;22.38;20.35;;;17.70;99.90;;;;;;5015798;28;20773;-77
2022/07/15 10:09:49;;;;;;;22.17;20.77;;;18.00;99.90;;;;;;5025348;28;20606;-74
2022/07/15 10:12:22;;;;;;;23.25;21.48;;;18.00;99.90;;;;;;5027427;28;20044;-75
2022/07/15 10:15:09;;;;;;;22.15;20.55;;;18.20;99.90;;;;;;5033465;28;20131;-75
2022/07/15 10:17:51;;;;;;;22.80;21.25;;;18.20;99.90;;;;;;5028761;28;20696;-75
2022/07/15 10:20:45;;;;;;;23.38;21.58;;;18.10;99.90;;;;;;5032084;28;20039;-75
2022/07/15 10:23:48;;;;;;;23.63;22.02;;;18.10;99.90;;;;;;5019831;28;20072;-74
2022/07/15 10:26:47;;;;;;;22.25;20.55;;;18.10;99.90;;;;;;5034126;28;20905;-75
2022/07/15 10:29:15;;;;;;;22.55;20.67;;;17.90;99.90;;;;;;5022580;28;20048;-74
2022/07/15 10:31:44;;;;;;;22.17;20.83;;;17.90;99.90;;;;;;5018527;28;20418;-75
2022/07/15 10:34:11;;;;;;;22.42;21.23;;;17.80;99.90;;;;;;5025201;28;20052;-77
2022/07/15 10:36:47;;;;;;;22.45;21.15;;;17.90;99.90;;;;;;5023955;28;20728;-75
2022/07/15 10:39:17;;;;;;;22.98;21.10;;;18.10;99.90;;;;;;5048580;28;20047;-77
2022/07/15 10:42:01;;;;;;;22.58;20.90;;;18.20;99.90;;;;;;5029824;28;20175;-75
2022/07/15 10:44:30;;;;;;;21.65;20.20;;;18.60;99.90;;;;;;5027675;28;20044;-75
2022/07/15 10:47:12;;;;;;;22.65;21.33;;;19.00;99.90;;;;;;5007626;28;20052;-74
2022/07/15 10:49:41;;;;;;;22.02;20.77;;;19.00;99.90;;;;;;5033273;28;20044;-74
2022/07/15 10:52:13;;;;;;;22.35;20.70;;;19.10;99.90;;;;;;5036638;28;20098;-77
2022/07/15 10:54:43;;;;;;;23.02;21.33;;;18.80;99.90;;;;;;5032242;28;20043;-76
2022/07/15 10:57:13;;;;;;;22.77;21.15;;;18.60;99.90;;;;;;5028253;28;20040;-75
2022/07/15 10:59:51;;;;;;;22.38;20.85;;;18.40;99.90;;;;;;5027297;28;20151;-74
2022/07/15 11:02:20;;;;;;;22.13;20.60;;;18.30;99.90;;;;;;5017750;28;20510;-74
2022/07/15 11:04:49;;;;;;;22.08;20.48;;;18.30;99.90;;;;;;5031297;28;20040;-73
2022/07/15 11:07:16;;;;;;;25.48;23.48;;;18.40;99.90;;;;;;5034086;28;20387;-75
2022/07/15 11:09:51;;;;;;;23.92;22.42;;;18.60;99.90;;;;;;5033901;28;20066;-75
2022/07/15 11:12:30;;;;;;;;;;;18.90;99.90;;;;;;5022532;28;20469;-74
2022/07/15 11:15:00;;;;;;;22.50;21.02;;;19.00;99.90;;;;;;5020061;28;19979;-74
2022/07/15 11:17:29;;;;;;;27.23;25.35;;;19.40;99.90;;;;;;5020920;28;20051;-75
2022/07/15 11:20:05;;;;;;;21.45;20.15;;;19.40;99.90;;;;;;5027423;28;20801;-75
2022/07/15 11:22:32;;;;;;;24.25;22.65;;;19.60;99.90;;;;;;5025846;28;20385;-75
2022/07/15 11:24:59;;;;;;;23.25;21.73;;;19.50;99.90;;;;;;5054477;28;20093;-74
2022/07/15 11:27:26;;;;;;;22.15;20.67;;;19.70;99.90;;;;;;5020772;28;20831;-74
2022/07/15 11:30:03;;;;;;;22.73;21.02;;;19.70;99.90;;;;;;5040566;28;20078;-76
2022/07/15 11:32:32;;;;;;;22.35;21.05;;;19.70;99.90;;;;;;5026097;28;20227;-77
2022/07/15 11:35:04;;;;;;;22.38;20.80;;;19.60;99.90;;;;;;5036221;28;20051;-76
2022/07/15 11:37:35;;;;;;;22.75;20.85;;;19.80;99.90;;;;;;5027141;28;20045;-76
2022/07/15 11:45:47;;;;;;;24.70;22.98;;;19.20;99.90;;;;;;5039879;28;20036;-74
2022/07/15 11:48:15;;;;;;;26.08;24.33;;;19.30;99.90;;;;;;5009237;28;20056;-74
2022/07/15 11:50:51;;;;;;;26.70;24.85;;;20.20;99.90;;;;;;5044446;28;20215;-74
2022/07/15 11:53:18;;;;;;;23.33;21.92;;;20.90;99.90;;;;;;5015241;28;20196;-73
2022/07/15 11:55:51;;;;;;;23.73;22.33;;;20.90;99.90;;;;;;5011903;28;20475;-73
2022/07/15 11:58:55;;;;;;;24.98;23.05;;;20.70;99.90;;;;;;5017059;28;20064;-71
2022/07/15 12:01:28;;;;;;;23.17;21.58;;;20.50;99.90;;;;;;4946567;28;20622;-72
2022/07/15 12:03:57;;;;;;;23.70;22.00;;;20.60;99.90;;;;;;5021280;28;20598;-74
2022/07/15 12:06:31;;;;;;;23.08;21.67;;;20.60;99.90;;;;;;5007810;28;20241;-74
2022/07/15 12:09:02;;;;;;;23.60;21.85;;;20.50;99.90;;;;;;5029715;28;20455;-73
2022/07/15 12:11:33;;;;;;;23.63;21.83;;;20.40;99.90;;;;;;5013515;28;20074;-71
2022/07/15 12:14:07;;;;;;;23.50;21.90;;;20.20;99.90;;;;;;5020072;28;20121;-72
2022/07/15 12:16:38;;;;;;;23.30;21.67;;;20.20;99.90;;;;;;5038245;28;20297;-74
2022/07/15 12:19:07;;;;;;;23.98;22.20;;;20.10;99.90;;;;;;5039584;28;20051;-73
2022/07/15 12:21:36;;;;;;;22.67;21.17;;;20.20;99.90;;;;;;5036148;28;20551;-74
2022/07/15 12:24:12;;;;;;;25.10;22.50;;;20.00;99.90;;;;;;5023303;28;20544;-76
2022/07/15 12:26:42;;;;;;;22.75;21.10;;;20.20;99.90;;;;;;5011653;28;20442;-73
2022/07/15 12:29:10;;;;;;;22.42;21.13;;;20.10;99.90;;;;;;5034123;28;20055;-75
2022/07/15 12:31:41;;;;;;;22.70;21.00;;;19.90;99.90;;;;;;5021723;28;21934;-73
2022/07/15 12:34:08;;;;;;;24.73;22.92;;;20.00;99.90;;;;;;5038147;28;20047;-75
2022/07/15 12:36:38;;;;;;;23.95;22.27;;;20.10;99.90;;;;;;5006795;28;20328;-75
2022/07/15 12:39:18;;;;;;;24.02;22.42;;;20.50;99.90;;;;;;5035523;28;20048;-72
2022/07/15 12:42:00;;;;;;;24.35;22.73;;;20.70;99.90;;;;;;5031349;28;20229;-76
2022/07/15 12:44:28;;;;;;;22.90;21.33;;;20.70;99.90;;;;;;5011614;28;20580;-72
2022/07/15 12:47:06;;;;;;;21.23;19.67;;;20.90;99.90;;;;;;5012919;28;20545;-75
2022/07/15 12:52:58;;;;;;;22.90;21.45;;;21.00;99.90;;;;;;5015787;28;20464;-73
2022/07/15 12:55:29;;;;;;;23.70;22.08;;;20.80;99.90;;;;;;5013184;28;20243;-73
2022/07/15 12:58:11;;;;;;;24.35;22.42;;;20.60;99.90;;;;;;5037935;28;20044;-73
2022/07/15 13:00:39;;;;;;;24.50;22.75;;;20.30;99.90;;;;;;5024933;28;20048;-73